Time;durP1;ratioP1;P1;durP2;ratioP2;P2;SDS_P1;SDS_P2;PMS_P1;PMS_P2;Temp;Humidity;BMP_temperature;BMP_pressure;BME280_temperature;BME280_humidity;BME280_pressure;Samples;Min_cycle;Max_cycle;Signal;HPM_P1;HPM_P2
2022/09/08 00:04:49;;;;;;;5.35;3.08;;;;;;;15.65;100.00;100688.44;10304172;28;20144;-77
2022/09/08 00:09:50;;;;;;;13.10;4.25;;;;;;;15.85;100.00;100667.81;10354101;28;20088;-77
2022/09/08 00:14:51;;;;;;;11.88;5.18;;;;;;;15.92;99.54;100687.31;10353948;28;20042;-77
2022/09/08 00:19:52;;;;;;;16.45;6.22;;;;;;;15.99;99.31;100676.03;10368198;28;20045;-77
2022/09/08 00:24:52;;;;;;;12.82;5.65;;;;;;;16.04;99.01;100658.56;10324754;28;20126;-78
2022/09/08 00:29:53;;;;;;;9.73;6.25;;;;;;;15.98;98.82;100651.41;10319890;28;20070;-77
2022/09/08 00:34:53;;;;;;;9.73;5.38;;;;;;;15.86;99.27;100644.06;10334841;28;20558;-77
2022/09/08 00:39:54;;;;;;;12.07;4.70;;;;;;;15.85;99.01;100634.38;10347475;28;20167;-77
2022/09/08 00:44:55;;;;;;;8.30;5.10;;;;;;;15.67;99.05;100616.41;10361098;28;20038;-78
2022/09/08 00:50:06;;;;;;;14.43;4.37;;;;;;;15.46;99.47;100608.88;10355167;28;20049;-77
2022/09/08 00:55:07;;;;;;;11.70;5.15;;;;;;;15.26;100.00;100613.69;10342925;28;20036;-78
2022/09/08 01:00:09;;;;;;;10.18;4.65;;;;;;;15.11;100.00;100596.63;10305008;28;20495;-77
2022/09/08 01:05:12;;;;;;;9.10;4.20;;;;;;;14.98;100.00;100603.31;10335183;28;20054;-77
2022/09/08 01:15:58;;;;;;;18.73;6.68;;;;;;;14.97;100.00;100592.75;10304434;28;20499;-77
2022/09/08 01:21:13;;;;;;;11.45;5.28;;;;;;;14.90;100.00;100593.44;10311917;28;20132;-77
2022/09/08 01:26:40;;;;;;;14.48;5.13;;;;;;;14.94;100.00;100593.56;10342105;28;20042;-77
2022/09/08 01:31:42;;;;;;;9.48;3.97;;;;;;;15.05;100.00;100587.66;10290349;28;20070;-76
2022/09/08 01:36:42;;;;;;;7.35;3.97;;;;;;;15.24;100.00;100589.91;10334149;28;20145;-77
2022/09/08 01:41:43;;;;;;;12.50;4.43;;;;;;;15.30;100.00;100569.81;10332519;28;20034;-77
2022/09/08 01:46:43;;;;;;;9.65;3.50;;;;;;;15.18;100.00;100571.28;10321151;28;20132;-77
2022/09/08 01:51:44;;;;;;;6.97;3.70;;;;;;;15.06;100.00;100568.38;10312116;28;20522;-78
2022/09/08 01:56:44;;;;;;;7.38;2.95;;;;;;;14.93;100.00;100575.97;10306141;28;20038;-78
2022/09/08 02:01:44;;;;;;;4.50;2.72;;;;;;;14.77;100.00;100579.06;10326932;28;20049;-77
2022/09/08 02:06:45;;;;;;;10.90;4.22;;;;;;;14.67;100.00;100570.00;10321564;28;20514;-77
2022/09/08 02:11:48;;;;;;;6.05;3.35;;;;;;;14.62;100.00;100559.34;10303814;28;20043;-77
2022/09/08 02:16:48;;;;;;;4.65;2.63;;;;;;;14.61;100.00;100569.84;10317664;28;20106;-77
2022/09/08 02:21:49;;;;;;;8.45;2.70;;;;;;;14.65;100.00;100567.31;10337205;28;20057;-77
2022/09/08 02:26:49;;;;;;;8.07;2.90;;;;;;;14.73;100.00;100580.75;10307350;28;20081;-77
2022/09/08 02:31:50;;;;;;;11.35;5.18;;;;;;;14.84;100.00;100586.28;10339575;28;20111;-77
2022/09/08 02:36:50;;;;;;;9.98;3.53;;;;;;;14.88;100.00;100585.50;10303950;28;20458;-77
2022/09/08 02:41:51;;;;;;;7.82;3.90;;;;;;;14.82;100.00;100567.81;10326925;28;20054;-77
2022/09/08 02:46:51;;;;;;;7.95;3.72;;;;;;;14.74;100.00;100555.28;10321156;28;20038;-77
2022/09/08 02:51:52;;;;;;;10.68;4.38;;;;;;;14.68;100.00;100574.44;10307509;28;20142;-77
2022/09/08 02:56:52;;;;;;;8.38;3.58;;;;;;;14.62;100.00;100576.91;10298509;28;20037;-77
2022/09/08 03:01:53;;;;;;;11.02;5.30;;;;;;;14.66;100.00;100577.00;10301448;28;20137;-77
2022/09/08 03:06:54;;;;;;;7.68;4.53;;;;;;;14.71;100.00;100577.19;10284923;28;20042;-77
2022/09/08 03:11:55;;;;;;;7.15;3.90;;;;;;;14.75;100.00;100570.22;10330865;28;20046;-77
2022/09/08 03:16:56;;;;;;;7.90;4.43;;;;;;;14.81;100.00;100573.03;10287752;28;20054;-77
2022/09/08 03:21:57;;;;;;;13.18;3.83;;;;;;;14.89;100.00;100573.22;10328341;28;20171;-76
2022/09/08 03:26:57;;;;;;;15.82;4.00;;;;;;;14.89;100.00;100567.97;10312915;28;20049;-77
2022/09/08 03:31:58;;;;;;;7.68;3.70;;;;;;;14.90;100.00;100554.81;10316606;28;20121;-77
2022/09/08 03:36:58;;;;;;;10.70;4.20;;;;;;;14.95;100.00;100566.34;10310002;28;20498;-77
2022/09/08 03:41:59;;;;;;;11.68;6.40;;;;;;;14.97;100.00;100543.56;10299681;28;20153;-77
2022/09/08 03:46:59;;;;;;;13.10;5.60;;;;;;;14.91;100.00;100567.13;10285415;28;20038;-78
2022/09/08 03:52:01;;;;;;;11.25;4.45;;;;;;;14.72;100.00;100578.97;10319026;28;20380;-78
2022/09/08 03:57:01;;;;;;;14.48;5.63;;;;;;;14.59;100.00;100590.84;10305719;28;20042;-78
2022/09/08 04:02:02;;;;;;;13.82;5.82;;;;;;;14.50;100.00;100595.88;10304295;28;20066;-78
2022/09/08 04:07:02;;;;;;;14.50;6.18;;;;;;;14.43;100.00;100604.47;10295868;28;20046;-78
2022/09/08 04:12:04;;;;;;;17.83;6.72;;;;;;;14.44;100.00;100612.41;10319889;28;20109;-79
2022/09/08 04:17:05;;;;;;;11.20;6.10;;;;;;;14.45;100.00;100601.03;10321395;28;20199;-77
2022/09/08 04:22:06;;;;;;;14.48;6.53;;;;;;;14.43;100.00;100596.56;10317820;28;20130;-77
2022/09/08 04:27:07;;;;;;;21.98;8.43;;;;;;;14.46;100.00;100596.66;10297350;28;20061;-78
2022/09/08 04:32:11;;;;;;;15.25;7.30;;;;;;;14.44;100.00;100600.97;10300727;28;20035;-78
2022/09/08 04:37:11;;;;;;;18.50;7.85;;;;;;;14.43;100.00;100599.19;10317190;28;20495;-79
2022/09/08 04:42:12;;;;;;;17.70;8.63;;;;;;;14.46;100.00;100599.28;10340885;28;20107;-79
2022/09/08 04:47:13;;;;;;;17.67;8.35;;;;;;;14.46;100.00;100601.91;10314276;28;20550;-80
2022/09/08 04:52:13;;;;;;;17.42;9.13;;;;;;;14.44;100.00;100598.34;10341633;28;20129;-78
2022/09/08 04:57:15;;;;;;;14.77;8.73;;;;;;;14.39;100.00;100599.09;10291973;28;20047;-78
2022/09/08 05:02:16;;;;;;;15.93;10.07;;;;;;;14.36;100.00;100599.03;10299595;28;20054;-79
2022/09/08 05:07:16;;;;;;;16.80;10.25;;;;;;;14.38;100.00;100599.09;10314588;28;20129;-83
2022/09/08 05:12:18;;;;;;;24.20;14.90;;;;;;;14.40;100.00;100600.03;10311891;28;20074;-82
2022/09/08 05:17:19;;;;;;;17.60;10.93;;;;;;;14.43;100.00;100604.47;10325959;28;20473;-81
2022/09/08 05:22:19;;;;;;;20.00;9.52;;;;;;;14.41;100.00;100596.53;10309905;28;20069;-79
2022/09/08 05:27:20;;;;;;;16.63;9.52;;;;;;;14.41;100.00;100601.81;10316342;28;20049;-79
2022/09/08 05:32:20;;;;;;;20.42;10.38;;;;;;;14.42;100.00;100598.31;10304620;28;20372;-79
2022/09/08 05:37:21;;;;;;;13.95;9.40;;;;;;;14.47;100.00;100598.44;10292717;28;20109;-79
2022/09/08 05:42:21;;;;;;;19.30;11.40;;;;;;;14.42;100.00;100608.84;10289318;28;20121;-78
2022/09/08 05:47:22;;;;;;;14.73;9.43;;;;;;;14.42;100.00;100597.41;10318716;28;20050;-79
2022/09/08 05:52:22;;;;;;;17.95;10.73;;;;;;;14.39;100.00;100599.09;10307719;28;20565;-82
2022/09/08 05:57:22;;;;;;;17.17;9.90;;;;;;;14.41;100.00;100608.78;10320622;28;20044;-81
2022/09/08 06:02:23;;;;;;;21.23;11.25;;;;;;;14.45;100.00;100606.31;10308535;28;20121;-82
2022/09/08 06:07:24;;;;;;;17.50;9.23;;;;;;;14.50;100.00;100612.59;10295594;28;20059;-78
2022/09/08 06:12:24;;;;;;;17.38;10.18;;;;;;;14.47;100.00;100620.41;10308439;28;20403;-80
2022/09/08 06:17:25;;;;;;;21.42;9.57;;;;;;;14.43;100.00;100613.25;10283353;28;20495;-81
2022/09/08 06:22:25;;;;;;;18.58;9.63;;;;;;;14.41;100.00;100620.22;10314697;28;20121;-79
2022/09/08 06:27:39;;;;;;;17.55;10.48;;;;;;;14.40;100.00;100623.72;10302459;28;20603;-78
2022/09/08 06:32:59;;;;;;;16.30;8.70;;;;;;;14.45;100.00;100622.09;10306111;28;20090;-77
2022/09/08 06:38:05;;;;;;;22.23;9.38;;;;;;;14.48;100.00;100632.72;10317941;28;20046;-77
2022/09/08 06:43:22;;;;;;;18.48;8.00;;;;;;;14.52;100.00;100636.31;10331291;28;20050;-79
2022/09/08 06:48:35;;;;;;;21.85;12.00;;;;;;;14.56;100.00;100635.53;10347028;28;20037;-77
2022/09/08 06:53:42;;;;;;;16.52;10.18;;;;;;;14.68;100.00;100637.63;10355430;28;20513;-78
2022/09/08 06:58:44;;;;;;;17.63;10.52;;;;;;;14.74;100.00;100631.66;10358855;28;20042;-80
2022/09/08 07:03:53;;;;;;;21.20;8.48;;;;;;;14.75;100.00;100634.34;10330528;28;20039;-79
2022/09/08 07:09:19;;;;;;;11.15;6.63;;;;;;;14.84;100.00;100631.06;10339853;28;20088;-79
2022/09/08 07:14:44;;;;;;;12.23;7.43;;;;;;;15.01;100.00;100633.25;10321265;28;20046;-79
2022/09/08 07:19:52;;;;;;;11.40;7.75;;;;;;;15.23;100.00;100626.78;10319919;28;20046;-81
2022/09/08 07:24:54;;;;;;;15.70;8.73;;;;;;;15.43;100.00;100634.28;10338283;28;20039;-81
2022/09/08 07:29:57;;;;;;;17.17;7.20;;;;;;;15.97;100.00;100639.06;10320383;28;20490;-79
2022/09/08 07:35:05;;;;;;;9.52;5.88;;;;;;;16.35;100.00;100635.44;10340429;28;20456;-79
2022/09/08 07:40:37;;;;;;;9.48;6.47;;;;;;;16.76;100.00;100644.16;10361087;28;20034;-80
2022/09/08 07:46:15;;;;;;;10.77;5.70;;;;;;;17.11;100.00;100639.53;10361101;28;20100;-78
2022/09/08 07:51:17;;;;;;;11.75;5.85;;;;;;;17.12;100.00;100636.03;10376709;28;20066;-79
2022/09/08 07:56:30;;;;;;;9.63;6.07;;;;;;;17.08;99.08;100634.19;10343659;28;20058;-80
2022/09/08 08:01:58;;;;;;;8.82;5.38;;;;;;;17.57;100.00;100644.66;10360176;28;20281;-79
2022/09/08 08:07:00;;;;;;;9.05;4.68;;;;;;;18.91;96.09;100638.41;10361708;28;20091;-80
2022/09/08 08:12:09;;;;;;;15.07;4.05;;;;;;;22.37;74.61;100635.81;10353999;28;20065;-81
2022/09/08 08:17:21;;;;;;;10.63;5.10;;;;;;;22.48;70.58;100628.69;10317224;28;20052;-80
2022/09/08 08:22:34;;;;;;;;;;;;;;;20.67;73.23;100643.06;10303411;28;20038;-81
2022/09/08 08:28:11;;;;;;;8.52;4.30;;;;;;;18.57;83.32;100638.06;10320043;28;19918;-81
2022/09/08 08:33:17;;;;;;;8.85;3.83;;;;;;;17.53;86.06;100656.06;10316336;28;20050;-80
2022/09/08 08:38:24;;;;;;;4.90;2.50;;;;;;;16.59;89.56;100650.00;10316690;28;20394;-81
2022/09/08 08:43:33;;;;;;;5.72;3.40;;;;;;;16.35;93.37;100660.97;10316150;28;20034;-80
2022/09/08 08:49:01;;;;;;;8.50;3.60;;;;;;;16.00;96.77;100654.97;10318333;28;20080;-80
2022/09/08 08:54:01;;;;;;;5.32;3.50;;;;;;;17.68;91.40;100659.81;10319170;28;20038;-80
2022/09/08 08:59:05;;;;;;;5.07;2.53;;;;;;;18.05;83.71;100653.34;10318944;28;20491;-81
2022/09/08 09:04:05;;;;;;;5.22;2.40;;;;;;;17.46;88.31;100648.91;10320321;28;20046;-80
2022/09/08 09:09:27;;;;;;;7.22;3.35;;;;;;;16.98;89.23;100651.63;10294439;28;20043;-80
2022/09/08 09:14:50;;;;;;;6.85;2.72;;;;;;;16.65;91.73;100657.16;10344411;28;20042;-81
2022/09/08 09:20:08;;;;;;;;;;;;;;;16.96;92.69;100648.03;10335989;28;20415;-81
2022/09/08 09:25:28;;;;;;;4.07;2.70;;;;;;;17.15;92.87;100641.38;10347981;28;19936;-80
2022/09/08 09:30:48;;;;;;;9.32;3.53;;;;;;;18.34;88.21;100646.63;10381078;28;20038;-80
2022/09/08 09:36:00;;;;;;;9.80;3.45;;;;;;;18.30;83.74;100651.00;10304970;28;20034;-79
2022/09/08 09:41:15;;;;;;;11.57;2.90;;;;;;;19.22;85.72;100654.63;10360643;28;20065;-78
2022/09/08 09:46:33;;;;;;;6.65;1.80;;;;;;;20.52;70.42;100642.13;10350116;28;20110;-78
2022/09/08 09:51:39;;;;;;;2.53;1.92;;;;;;;23.44;66.27;100640.47;10367157;28;20037;-78
2022/09/08 09:56:56;;;;;;;6.95;1.13;;;;;;;25.19;54.68;100646.28;10366715;28;20030;-79
2022/09/08 10:02:11;;;;;;;3.35;1.38;;;;;;;23.52;59.55;100643.97;10375009;28;20536;-79
2022/09/08 10:07:24;;;;;;;3.50;1.48;;;;;;;22.13;62.55;100641.25;10343689;28;20056;-79
2022/09/08 10:12:46;;;;;;;3.50;1.30;;;;;;;24.91;53.55;100635.16;10365727;28;20053;-80
2022/09/08 10:18:12;;;;;;;4.00;1.10;;;;;;;22.41;58.89;100645.56;10284553;28;20510;-79
2022/09/08 10:23:31;;;;;;;4.80;1.67;;;;;;;20.60;67.66;100652.81;10353481;28;20092;-80
2022/09/08 10:28:56;;;;;;;3.85;1.20;;;;;;;22.94;61.25;100650.63;10347796;28;20081;-80
2022/09/08 10:34:32;;;;;;;2.45;1.05;;;;;;;22.75;59.31;100652.53;10350830;28;20045;-79
2022/09/08 10:39:59;;;;;;;8.95;2.00;;;;;;;22.36;59.26;100642.94;10334804;28;20042;-79
2022/09/08 10:45:28;;;;;;;5.78;2.03;;;;;;;21.12;61.79;100641.38;10332709;28;20069;-80
2022/09/08 10:50:30;;;;;;;6.90;1.60;;;;;;;21.84;59.04;100636.00;10320109;28;20466;-84
2022/09/08 10:55:46;;;;;;;1.73;1.00;;;;;;;22.58;58.92;100627.72;10322421;28;20061;-83
2022/09/08 11:01:02;;;;;;;3.63;1.83;;;;;;;23.00;56.49;100632.81;10337336;28;20042;-81
2022/09/08 11:06:15;;;;;;;4.32;1.20;;;;;;;22.20;59.17;100618.13;10322823;28;20521;-80
2022/09/08 11:11:27;;;;;;;3.72;1.60;;;;;;;22.56;55.33;100625.97;10320158;28;20904;-80
2022/09/08 11:16:55;;;;;;;2.78;1.10;;;;;;;20.76;59.97;100621.81;10344440;28;20066;-81
2022/09/08 11:22:28;;;;;;;5.68;1.52;;;;;;;21.13;62.54;100619.22;10348793;28;20057;-80
2022/09/08 11:27:53;;;;;;;2.72;1.67;;;;;;;26.30;48.84;100614.81;10345974;28;20199;-82
2022/09/08 11:32:59;;;;;;;4.13;0.90;;;;;;;26.77;42.54;100596.72;10361825;28;20513;-92
2022/09/08 11:38:03;;;;;;;3.50;1.33;;;;;;;27.40;41.55;100598.75;10324724;28;20134;-80
2022/09/08 11:43:24;;;;;;;21.83;5.88;;;;;;;26.25;44.67;100609.53;10319407;28;20154;-81
2022/09/08 11:48:44;;;;;;;7.53;2.67;;;;;;;26.67;42.53;100600.56;10329068;28;20042;-79
2022/09/08 11:54:22;;;;;;;5.28;1.88;;;;;;;27.27;42.44;100596.38;10361101;28;20038;-79
2022/09/08 11:59:37;;;;;;;4.20;1.15;;;;;;;27.94;40.88;100588.31;10344030;28;20096;-78
2022/09/08 12:04:44;;;;;;;4.07;1.20;;;;;;;27.97;39.06;100583.75;10361088;28;20116;-80
2022/09/08 12:10:06;;;;;;;4.78;1.83;;;;;;;27.52;40.78;100578.78;10358556;28;20521;-80
2022/09/08 12:15:12;;;;;;;4.18;1.25;;;;;;;27.66;40.14;100581.94;10360997;28;20046;-80
2022/09/08 12:20:37;;;;;;;4.15;1.13;;;;;;;27.83;40.63;100576.06;10360856;28;20124;-80
2022/09/08 12:25:54;;;;;;;6.95;1.83;;;;;;;26.48;40.44;100576.81;10358062;28;20391;-80
2022/09/08 12:31:19;;;;;;;3.50;1.20;;;;;;;24.89;44.60;100581.66;10357612;28;20069;-81
2022/09/08 12:36:53;;;;;;;3.95;1.40;;;;;;;21.99;51.55;100585.34;10358781;28;20042;-81
2022/09/08 12:42:24;;;;;;;4.60;1.88;;;;;;;22.64;52.75;100584.16;10360457;28;20423;-80
2022/09/08 12:47:46;;;;;;;4.35;1.60;;;;;;;22.08;51.88;100576.44;10359482;28;20053;-82
2022/09/08 12:52:55;;;;;;;4.82;1.58;;;;;;;24.97;44.96;100565.47;10358603;28;20497;-81
2022/09/08 12:57:59;;;;;;;3.00;1.17;;;;;;;27.10;40.43;100553.88;10358935;28;20044;-83
2022/09/08 13:03:28;;;;;;;4.68;1.35;;;;;;;27.26;41.38;100566.88;10329770;28;20039;-81
2022/09/08 13:08:47;;;;;;;3.95;1.00;;;;;;;27.75;38.73;100572.72;10345278;28;20121;-82
2022/09/08 13:13:48;;;;;;;2.08;0.85;;;;;;;27.41;38.39;100584.38;10317388;28;20125;-81
2022/09/08 13:18:58;;;;;;;3.37;0.87;;;;;;;28.05;39.27;100578.13;10317290;28;20035;-78
2022/09/08 13:24:24;;;;;;;29.67;2.40;;;;;;;28.35;36.83;100590.75;10325427;28;20297;-81
2022/09/08 13:29:46;;;;;;;3.30;1.02;;;;;;;25.19;43.57;100590.06;10348268;28;20065;-76
2022/09/08 13:35:00;;;;;;;6.90;1.55;;;;;;;24.51;46.74;100592.94;10346803;28;20383;-77
2022/09/08 13:40:17;;;;;;;6.13;1.52;;;;;;;26.51;41.35;100582.13;10356767;28;20414;-79
2022/09/08 13:45:52;;;;;;;5.53;1.40;;;;;;;27.16;39.40;100578.81;10359605;28;20042;-78
2022/09/08 13:51:14;;;;;;;3.10;1.10;;;;;;;26.62;40.44;100575.63;10375107;28;20117;-79
2022/09/08 13:56:15;;;;;;;;;;;;;;;27.08;41.12;100565.56;10360108;28;20072;-78
2022/09/08 14:01:27;;;;;;;3.83;1.17;;;;;;;27.32;42.28;100565.84;10359568;28;20387;-79
2022/09/08 14:06:34;;;;;;;;;;;;;;;27.81;39.52;100567.16;10359368;28;21154;-79
2022/09/08 14:11:39;;;;;;;9.15;1.52;;;;;;;25.86;43.13;100563.84;10357440;28;19922;-79
2022/09/08 14:16:39;;;;;;;3.60;1.35;;;;;;;25.45;43.60;100561.97;10345606;28;20087;-79
2022/09/08 14:21:48;;;;;;;5.13;2.00;;;;;;;25.12;44.10;100568.78;10363880;28;20433;-79
2022/09/08 14:26:50;;;;;;;14.25;1.75;;;;;;;23.69;47.86;100574.31;10365636;28;20482;-78
2022/09/08 14:32:15;;;;;;;5.85;1.98;;;;;;;22.40;50.63;100582.47;10364495;28;20104;-79
2022/09/08 14:37:15;;;;;;;7.78;1.45;;;;;;;21.55;57.61;100583.69;10353125;28;20070;-80
2022/09/08 14:42:30;;;;;;;5.95;1.23;;;;;;;20.93;55.88;100578.41;10299111;28;20997;-78
2022/09/08 14:47:39;;;;;;;6.25;2.13;;;;;;;20.32;58.34;100594.25;10300537;28;20054;-77
2022/09/08 14:53:05;;;;;;;4.82;1.23;;;;;;;19.79;63.02;100582.47;10318264;28;20042;-78
2022/09/08 14:58:36;;;;;;;5.00;1.50;;;;;;;19.33;63.17;100580.44;10320914;28;20046;-78
2022/09/08 15:03:38;;;;;;;5.03;1.70;;;;;;;18.93;65.28;100589.84;10334409;28;22332;-78
2022/09/08 15:08:39;;;;;;;9.27;2.35;;;;;;;18.72;66.85;100581.69;10337809;28;20038;-78
2022/09/08 15:14:01;;;;;;;6.15;1.92;;;;;;;18.60;67.98;100587.72;10327575;28;20378;-78
2022/09/08 15:19:20;;;;;;;10.02;2.22;;;;;;;18.36;70.22;100617.53;10310382;28;20047;-77
2022/09/08 15:24:29;;;;;;;10.32;2.50;;;;;;;17.94;73.92;100654.00;10321215;28;20042;-77
2022/09/08 15:29:45;;;;;;;11.35;2.00;;;;;;;16.55;82.35;100649.06;10330984;28;20038;-78
2022/09/08 15:34:48;;;;;;;6.03;1.73;;;;;;;15.72;87.29;100632.31;10309765;28;20026;-78
2022/09/08 15:39:55;;;;;;;1.52;1.33;;;;;;;15.26;91.12;100630.38;10320934;28;20031;-78
2022/09/08 15:45:08;;;;;;;4.43;1.45;;;;;;;14.98;95.41;100624.41;10318279;28;20481;-78
2022/09/08 15:50:20;;;;;;;4.63;1.67;;;;;;;14.81;99.23;100613.44;10316959;28;20042;-77
2022/09/08 15:55:36;;;;;;;5.83;1.50;;;;;;;14.73;100.00;100630.78;10304074;28;20483;-78
2022/09/08 16:00:51;;;;;;;6.40;1.27;;;;;;;14.65;100.00;100627.91;10311469;28;20050;-78
2022/09/08 16:06:03;;;;;;;2.45;1.27;;;;;;;14.67;100.00;100631.47;10318263;28;20046;-78
2022/09/08 16:11:30;;;;;;;3.25;1.63;;;;;;;14.78;100.00;100612.44;10316151;28;20479;-78
2022/09/08 16:16:41;;;;;;;3.45;1.60;;;;;;;14.93;100.00;100611.97;10332182;28;20046;-78
2022/09/08 16:21:57;;;;;;;6.57;1.67;;;;;;;15.35;100.00;100599.81;10310530;28;20113;-78
2022/09/08 16:27:00;;;;;;;2.05;0.80;;;;;;;15.73;98.04;100594.53;10302255;28;20042;-78
2022/09/08 16:32:10;;;;;;;2.13;0.77;;;;;;;15.95;98.77;100589.75;10304181;28;20061;-78
2022/09/08 16:37:14;;;;;;;4.07;0.80;;;;;;;16.25;96.55;100581.56;10323006;28;20133;-77
2022/09/08 16:42:29;;;;;;;6.20;0.95;;;;;;;16.56;94.32;100581.25;10281865;28;20073;-78
2022/09/08 16:47:49;;;;;;;14.20;9.25;;;;;;;16.55;94.32;100576.84;10301954;28;20573;-77
2022/09/08 16:53:23;;;;;;;4.05;1.85;;;;;;;16.49;94.44;100572.34;10337361;28;20439;-76
2022/09/08 16:58:56;;;;;;;4.00;0.88;;;;;;;16.14;94.55;100576.06;10303233;28;20042;-79
2022/09/08 17:03:59;;;;;;;2.72;1.25;;;;;;;15.73;97.82;100576.06;10311045;28;20140;-77
2022/09/08 17:09:12;;;;;;;4.03;1.38;;;;;;;15.42;99.39;100578.00;10318747;28;20072;-77
2022/09/08 17:14:16;;;;;;;1.73;1.00;;;;;;;15.16;100.00;100573.00;10318476;28;20062;-77
2022/09/08 17:19:51;;;;;;;1.42;1.17;;;;;;;14.81;100.00;100579.19;10327631;28;20043;-82
2022/09/08 17:25:14;;;;;;;2.28;1.48;;;;;;;14.59;100.00;100582.97;10303037;28;20169;-78
2022/09/08 17:30:18;;;;;;;4.20;1.27;;;;;;;14.45;100.00;100579.97;10315909;28;20054;-77
2022/09/08 17:35:22;;;;;;;3.33;1.17;;;;;;;14.26;100.00;100572.41;10313938;28;20042;-77
2022/09/08 17:40:39;;;;;;;3.15;1.00;;;;;;;14.17;100.00;100575.66;10305871;28;20053;-77
2022/09/08 17:45:40;;;;;;;2.45;1.60;;;;;;;14.12;100.00;100567.66;10305106;28;20551;-79
2022/09/08 17:51:15;;;;;;;4.47;0.95;;;;;;;14.14;100.00;100575.56;10306837;28;20050;-78
2022/09/08 17:56:25;;;;;;;3.60;1.23;;;;;;;14.17;100.00;100584.47;10307483;28;20039;-79
2022/09/08 18:01:33;;;;;;;2.20;1.23;;;;;;;14.17;100.00;100575.66;10331693;28;20042;-78
2022/09/08 18:06:47;;;;;;;3.90;1.27;;;;;;;14.10;100.00;100575.50;10331862;28;20050;-78
2022/09/08 18:11:55;;;;;;;1.20;1.10;;;;;;;13.96;100.00;100574.19;10317305;28;20042;-79
2022/09/08 18:17:20;;;;;;;10.02;1.85;;;;;;;13.86;100.00;100572.16;10338118;28;20073;-79
2022/09/08 18:22:35;;;;;;;4.85;1.42;;;;;;;13.93;100.00;100584.63;10350946;28;20049;-78
2022/09/08 18:27:48;;;;;;;4.35;1.58;;;;;;;14.08;100.00;100586.84;10346315;28;20433;-79
2022/09/08 18:33:14;;;;;;;1.60;1.00;;;;;;;14.12;100.00;100587.81;10310899;28;20497;-78
2022/09/08 18:38:25;;;;;;;3.80;1.55;;;;;;;14.21;100.00;100630.19;10322195;28;20478;-79
2022/09/08 18:43:30;;;;;;;3.92;1.13;;;;;;;13.55;100.00;100636.97;10350649;28;20121;-77
2022/09/08 18:48:31;;;;;;;10.70;2.55;;;;;;;13.16;100.00;100633.06;10325947;28;20483;-76
2022/09/08 18:54:24;;;;;;;7.15;2.40;;;;;;;13.04;100.00;100623.94;10330511;28;20050;-76
2022/09/08 18:59:44;;;;;;;5.68;2.10;;;;;;;12.99;100.00;100583.47;10326445;28;20070;-77
2022/09/08 19:05:01;;;;;;;9.60;1.98;;;;;;;12.92;100.00;100582.38;10327480;28;20038;-79
2022/09/08 19:10:34;;;;;;;6.38;2.88;;;;;;;13.18;100.00;100591.97;10314212;28;20512;-80
2022/09/08 19:15:53;;;;;;;6.18;2.42;;;;;;;13.21;100.00;100595.56;10332813;28;20049;-77
2022/09/08 19:20:58;;;;;;;8.27;3.35;;;;;;;13.28;100.00;100587.88;10339769;28;20034;-77
2022/09/08 19:26:12;;;;;;;11.43;3.03;;;;;;;13.36;100.00;100602.16;10327616;28;20584;-77
2022/09/08 19:31:29;;;;;;;11.10;3.70;;;;;;;13.35;100.00;100590.78;10341743;28;20557;-77
2022/09/08 19:36:39;;;;;;;8.23;3.88;;;;;;;13.35;100.00;100589.88;10341147;28;20117;-77
2022/09/08 19:41:47;;;;;;;9.68;3.35;;;;;;;13.29;100.00;100568.63;10336278;28;20038;-77
2022/09/08 19:47:18;;;;;;;14.35;4.78;;;;;;;13.14;100.00;100563.81;10339249;28;20054;-77
2022/09/08 19:52:51;;;;;;;10.68;3.83;;;;;;;13.08;100.00;100575.00;10335819;28;20172;-77
2022/09/08 19:58:14;;;;;;;5.47;2.90;;;;;;;13.03;100.00;100590.63;10338764;28;20030;-77
2022/09/08 20:03:26;;;;;;;9.60;3.15;;;;;;;12.98;100.00;100599.16;10336103;28;20056;-76
2022/09/08 20:08:40;;;;;;;9.98;3.78;;;;;;;12.97;100.00;100600.00;10348011;28;20180;-77
2022/09/08 20:13:54;;;;;;;10.73;5.10;;;;;;;12.93;100.00;100584.16;10321186;28;20483;-77
2022/09/08 20:18:59;;;;;;;6.20;2.88;;;;;;;12.90;100.00;100583.16;10336875;28;20038;-77
2022/09/08 20:24:21;;;;;;;9.85;3.30;;;;;;;12.83;100.00;100587.31;10352561;28;20042;-77
2022/09/08 20:29:44;;;;;;;11.38;3.88;;;;;;;12.83;100.00;100584.69;10321782;28;20107;-77
2022/09/08 20:35:02;;;;;;;9.80;5.15;;;;;;;12.78;100.00;100570.50;10368625;28;20413;-77
2022/09/08 20:40:29;;;;;;;9.95;4.75;;;;;;;12.76;100.00;100573.09;10338613;28;20041;-77
2022/09/08 20:45:40;;;;;;;30.90;8.02;;;;;;;12.83;100.00;100554.91;10316272;28;20464;-76
2022/09/08 20:51:02;;;;;;;9.75;5.70;;;;;;;12.98;100.00;100572.91;10357501;28;20084;-76
2022/09/08 20:56:18;;;;;;;21.20;7.13;;;;;;;13.40;100.00;100669.75;10311513;28;20419;-75
2022/09/08 21:01:19;;;;;;;8.45;4.15;;;;;;;12.86;100.00;100695.09;10322946;28;20046;-76
2022/09/08 21:06:23;;;;;;;7.97;2.78;;;;;;;12.61;100.00;100682.81;10327288;28;20073;-76
2022/09/08 21:11:34;;;;;;;4.85;1.98;;;;;;;12.48;100.00;100712.97;10321825;28;20092;-75
2022/09/08 21:17:23;;;;;;;10.73;2.97;;;;;;;12.47;100.00;100730.47;10328899;28;20081;-76
2022/09/08 21:22:35;;;;;;;5.00;2.70;;;;;;;12.46;100.00;100691.03;10274044;28;20105;-76
2022/09/08 21:27:54;;;;;;;8.13;2.70;;;;;;;12.39;100.00;100671.53;10311898;28;20394;-75
2022/09/08 21:33:09;;;;;;;5.88;2.17;;;;;;;12.24;100.00;100644.72;10358476;28;20061;-75
2022/09/08 21:38:25;;;;;;;4.63;2.63;;;;;;;12.25;100.00;100655.25;10292832;28;20050;-76
2022/09/08 21:43:31;;;;;;;5.05;3.17;;;;;;;12.30;100.00;100660.69;10311207;28;20039;-76
2022/09/08 21:48:32;;;;;;;4.43;2.10;;;;;;;12.25;100.00;100665.75;10330515;28;20168;-76
2022/09/08 21:53:37;;;;;;;4.13;2.03;;;;;;;12.17;100.00;100675.06;10300869;28;20043;-77
2022/09/08 21:58:45;;;;;;;6.50;3.45;;;;;;;12.15;100.00;100675.03;10337729;28;20045;-76
2022/09/08 22:03:46;;;;;;;4.85;2.33;;;;;;;12.13;100.00;100655.72;10329322;28;20034;-76
2022/09/08 22:09:25;;;;;;;6.67;2.40;;;;;;;12.12;100.00;100645.16;10323179;28;20044;-76
2022/09/08 22:14:48;;;;;;;6.22;2.28;;;;;;;12.17;100.00;100638.34;10323401;28;20065;-76
2022/09/08 22:19:53;;;;;;;6.18;2.78;;;;;;;12.16;100.00;100642.72;10322537;28;20042;-77
2022/09/08 22:24:54;;;;;;;6.03;2.28;;;;;;;12.16;100.00;100652.31;10341724;28;20128;-76
2022/09/08 22:30:07;;;;;;;4.65;2.20;;;;;;;12.16;100.00;100647.06;10324122;28;20038;-77
2022/09/08 22:35:39;;;;;;;7.55;3.45;;;;;;;12.09;100.00;100648.56;10350269;28;20117;-76
2022/09/08 22:40:52;;;;;;;3.97;2.83;;;;;;;12.11;100.00;100646.91;10363140;28;20402;-77
2022/09/08 22:46:01;;;;;;;;;;;;;;;12.05;100.00;100638.78;10362870;28;20049;-77
2022/09/08 22:51:03;;;;;;;5.60;2.80;;;;;;;11.99;100.00;100626.28;10332745;28;20056;-76
2022/09/08 22:56:18;;;;;;;4.80;2.20;;;;;;;11.99;100.00;100618.41;10322853;28;20073;-76
2022/09/08 23:01:33;;;;;;;9.32;2.83;;;;;;;11.98;100.00;100621.88;10340824;28;20478;-76
2022/09/08 23:06:35;;;;;;;8.27;4.03;;;;;;;11.95;100.00;100615.63;10316095;28;20045;-77
2022/09/08 23:11:38;;;;;;;11.27;3.30;;;;;;;11.89;100.00;100616.28;10348786;28;20361;-77
2022/09/08 23:16:49;;;;;;;7.70;3.25;;;;;;;11.89;100.00;100611.03;10323260;28;20088;-77
2022/09/08 23:22:08;;;;;;;6.40;3.53;;;;;;;11.89;100.00;100609.31;10327815;28;20046;-77
2022/09/08 23:27:47;;;;;;;5.93;2.80;;;;;;;11.89;100.00;100603.16;10339589;28;20053;-77
2022/09/08 23:33:06;;;;;;;9.38;2.60;;;;;;;11.82;100.00;100601.16;10311369;28;20042;-77
2022/09/08 23:38:10;;;;;;;8.60;2.80;;;;;;;11.76;100.00;100612.31;10329662;28;20130;-77
2022/09/08 23:43:16;;;;;;;6.15;2.72;;;;;;;11.71;100.00;100612.13;10298137;28;20058;-77